Time;durP1;ratioP1;P1;durP2;ratioP2;P2;SDS_P1;SDS_P2;PMS_P1;PMS_P2;Temp;Humidity;BMP_temperature;BMP_pressure;BME280_temperature;BME280_humidity;BME280_pressure;Samples;Min_cycle;Max_cycle;Signal;HPM_P1;HPM_P2
2022/12/14 00:02:14;;;;;;;;;;;;;;;21.27;22.57;97827.00;5099721;28;954;-80
2022/12/14 00:04:39;;;;;;;;;;;;;;;21.27;22.56;97838.31;5098994;28;846;-80
2022/12/14 00:07:05;;;;;;;;;;;;;;;20.99;22.85;97839.09;5099339;28;1073;-80
2022/12/14 00:09:30;;;;;;;;;;;;;;;20.99;22.79;97847.59;5098929;28;925;-80
2022/12/14 00:11:56;;;;;;;;;;;;;;;20.79;23.23;97853.34;5099374;28;1019;-80
2022/12/14 00:14:21;;;;;;;;;;;;;;;20.95;22.92;97866.69;5099464;28;920;-81
2022/12/14 00:16:47;;;;;;;;;;;;;;;21.32;22.47;97862.47;5098950;28;1917;-80
2022/12/14 00:19:12;;;;;;;;;;;;;;;21.42;22.32;97872.72;5098942;28;908;-80
2022/12/14 00:21:37;;;;;;;;;;;;;;;20.93;22.94;97864.28;5099134;28;891;-80
2022/12/14 00:24:03;;;;;;;;;;;;;;;20.85;23.18;97868.53;5098952;28;886;-80
2022/12/14 00:26:29;;;;;;;;;;;;;;;20.71;23.26;97875.34;5099492;28;945;-80
2022/12/14 00:28:56;;;;;;;;;;;;;;;20.55;23.68;97872.53;5098709;28;992;-80
2022/12/14 00:31:22;;;;;;;;;;;;;;;20.53;23.52;97863.69;5099086;28;893;-80
2022/12/14 00:33:47;;;;;;;;;;;;;;;20.98;23.04;97865.78;5098601;28;930;-80
2022/12/14 00:36:13;;;;;;;;;;;;;;;21.19;22.68;97853.09;5098741;28;1909;-80
2022/12/14 00:38:38;;;;;;;;;;;;;;;21.23;22.53;97857.41;5098496;28;923;-80
2022/12/14 00:41:04;;;;;;;;;;;;;;;20.99;22.97;97861.75;5098525;28;886;-80
2022/12/14 00:43:29;;;;;;;;;;;;;;;20.73;23.42;97858.75;5097036;28;931;-80
2022/12/14 00:45:55;;;;;;;;;;;;;;;20.84;23.32;97866.97;5099191;28;1059;-80
2022/12/14 00:48:20;;;;;;;;;;;;;;;21.08;22.90;97873.19;5098048;28;914;-80
2022/12/14 00:50:46;;;;;;;;;;;;;;;21.23;22.77;97877.22;5097562;28;979;-80
2022/12/14 00:53:12;;;;;;;;;;;;;;;20.90;23.16;97875.72;5098616;28;925;-80
2022/12/14 00:55:38;;;;;;;;;;;;;;;20.86;23.09;97886.31;5098715;28;1968;-80
2022/12/14 00:58:04;;;;;;;;;;;;;;;20.99;23.03;97885.16;5098128;28;897;-80
2022/12/14 01:00:29;;;;;;;;;;;;;;;21.14;22.79;97885.59;5098492;28;948;-80
2022/12/14 01:02:54;;;;;;;;;;;;;;;21.08;22.84;97898.66;5098341;28;1025;-80
2022/12/14 01:05:20;;;;;;;;;;;;;;;21.38;22.78;97889.00;5098438;28;970;-80
2022/12/14 01:07:45;;;;;;;;;;;;;;;20.94;23.18;97901.88;5098185;28;888;-80
2022/12/14 01:10:11;;;;;;;;;;;;;;;20.71;23.72;97900.00;5097881;28;1168;-80
2022/12/14 01:12:36;;;;;;;;;;;;;;;20.78;23.29;97903.47;5098120;28;954;-79
2022/12/14 01:15:02;;;;;;;;;;;;;;;20.92;23.33;97907.16;5098137;28;1906;-80
2022/12/14 01:17:27;;;;;;;;;;;;;;;21.16;23.04;97905.72;5098300;28;913;-80
2022/12/14 01:19:52;;;;;;;;;;;;;;;21.40;22.55;97902.69;5097700;28;914;-81
2022/12/14 01:22:18;;;;;;;;;;;;;;;21.36;22.82;97907.69;5098119;28;965;-80
2022/12/14 01:24:43;;;;;;;;;;;;;;;21.20;22.79;97911.31;5097984;28;946;-80
2022/12/14 01:27:09;;;;;;;;;;;;;;;20.76;23.57;97905.91;5096716;28;867;-81
2022/12/14 01:29:35;;;;;;;;;;;;;;;20.66;23.63;97901.31;5097433;28;962;-80
2022/12/14 01:32:01;;;;;;;;;;;;;;;20.91;23.19;97912.03;5098640;28;896;-80
2022/12/14 01:34:27;;;;;;;;;;;;;;;20.99;23.07;97915.47;5097019;28;1134;-80
2022/12/14 01:36:52;;;;;;;;;;;;;;;20.99;23.25;97895.69;5096869;28;1905;-80
2022/12/14 01:39:18;;;;;;;;;;;;;;;20.97;23.27;97910.25;5096412;28;930;-81
2022/12/14 01:41:44;;;;;;;;;;;;;;;20.73;23.66;97906.81;5097439;28;838;-80
2022/12/14 01:44:09;;;;;;;;;;;;;;;20.63;23.71;97902.22;5096077;28;943;-80
2022/12/14 01:46:40;;;;;;;;;;;;;;;20.72;23.69;97893.91;5097642;28;843;-80
2022/12/14 01:49:17;;;;;;;;;;;;;;;21.13;23.34;97900.16;5096092;28;962;-80
2022/12/14 01:51:44;;;;;;;;;;;;;;;21.16;22.96;97905.72;5097313;28;907;-80
2022/12/14 01:54:09;;;;;;;;;;;;;;;21.54;22.46;97908.75;5097049;28;943;-80
2022/12/14 01:56:35;;;;;;;;;;;;;;;20.96;23.49;97900.19;5097078;28;1901;-80
2022/12/14 01:59:01;;;;;;;;;;;;;;;20.55;23.96;97884.63;5096252;28;976;-80
2022/12/14 02:01:26;;;;;;;;;;;;;;;20.79;23.68;97892.94;5096619;28;894;-80
2022/12/14 02:03:52;;;;;;;;;;;;;;;21.16;23.02;97900.06;5096436;28;891;-80
2022/12/14 02:06:21;;;;;;;;;;;;;;;21.22;22.97;97898.28;5074750;28;886;-80
2022/12/14 02:08:47;;;;;;;;;;;;;;;21.03;23.12;97883.00;5074168;28;1004;-80
2022/12/14 02:11:12;;;;;;;;;;;;;;;20.37;23.94;97895.53;5058089;28;1088;-80
2022/12/14 02:13:38;;;;;;;;;;;;;;;20.48;24.11;97895.31;5057804;28;1050;-80
2022/12/14 02:16:04;;;;;;;;;;;;;;;21.02;23.23;97883.47;5075067;28;1913;-80
2022/12/14 02:18:30;;;;;;;;;;;;;;;21.01;23.57;97881.88;5057418;28;1185;-80
2022/12/14 02:21:08;;;;;;;;;;;;;;;21.00;23.37;97880.28;5074723;28;1021;-80
2022/12/14 02:23:42;;;;;;;;;;;;;;;21.23;22.95;97876.44;5057177;28;1019;-80
2022/12/14 02:26:08;;;;;;;;;;;;;;;20.70;23.67;97882.25;5074641;28;996;-80
2022/12/14 02:28:33;;;;;;;;;;;;;;;20.63;23.84;97878.81;5073947;28;911;-80
2022/12/14 02:31:24;;;;;;;;;;;;;;;20.51;23.93;97866.16;5074700;28;924;-80
2022/12/14 02:33:52;;;;;;;;;;;;;;;21.06;23.28;97878.50;4994919;28;971;-80
2022/12/14 02:36:27;;;;;;;;;;;;;;;21.21;22.96;97871.22;4979371;28;1989;-80
2022/12/14 02:39:00;;;;;;;;;;;;;;;21.11;23.35;97877.97;4978531;28;999;-80
2022/12/14 02:41:28;;;;;;;;;;;;;;;21.05;23.08;97883.38;4978842;28;1034;-80
2022/12/14 02:44:13;;;;;;;;;;;;;;;20.74;23.76;97873.69;4978659;28;1037;-80
2022/12/14 02:46:41;;;;;;;;;;;;;;;20.57;23.92;97874.91;4994893;28;1029;-80
2022/12/14 02:49:14;;;;;;;;;;;;;;;21.04;23.45;97881.00;4994801;28;1034;-80
2022/12/14 02:52:15;;;;;;;;;;;;;;;21.01;23.19;97888.31;4978660;28;1004;-80
2022/12/14 02:54:42;;;;;;;;;;;;;;;21.19;23.64;97882.22;4994761;28;986;-81
2022/12/14 02:57:09;;;;;;;;;;;;;;;20.91;23.69;97888.59;4978756;28;1914;-80
2022/12/14 02:59:35;;;;;;;;;;;;;;;20.69;23.80;97883.50;4978619;28;1059;-80
2022/12/14 03:02:00;;;;;;;;;;;;;;;20.76;23.88;97894.63;4978949;28;977;-80
2022/12/14 03:04:26;;;;;;;;;;;;;;;21.03;23.67;97899.19;4978552;28;913;-80
2022/12/14 03:06:56;;;;;;;;;;;;;;;21.14;23.26;97901.72;4995377;28;965;-80
2022/12/14 03:09:22;;;;;;;;;;;;;;;21.20;23.11;97905.66;4978192;28;897;-80
2022/12/14 03:11:51;;;;;;;;;;;;;;;20.77;23.75;97901.84;5033355;28;1132;-80
2022/12/14 03:14:23;;;;;;;;;;;;;;;20.64;24.23;97903.81;5017387;28;914;-80
2022/12/14 03:16:49;;;;;;;;;;;;;;;20.94;23.81;97899.03;5037119;28;1975;-81
2022/12/14 03:19:19;;;;;;;;;;;;;;;21.00;23.45;97903.72;5037517;28;937;-80
2022/12/14 03:21:58;;;;;;;;;;;;;;;21.29;23.11;97909.41;5037676;28;976;-80
2022/12/14 03:24:24;;;;;;;;;;;;;;;21.16;23.29;97897.25;5037562;28;1014;-80
2022/12/14 03:27:00;;;;;;;;;;;;;;;20.95;23.67;97901.41;5037501;28;962;-80
2022/12/14 03:29:26;;;;;;;;;;;;;;;20.67;24.04;97897.25;5089255;28;900;-80
2022/12/14 03:31:55;;;;;;;;;;;;;;;20.62;24.06;97906.25;5099965;28;1122;-79
2022/12/14 03:34:22;;;;;;;;;;;;;;;21.02;23.78;97906.09;5098720;28;941;-80
2022/12/14 03:36:52;;;;;;;;;;;;;;;21.36;23.23;97908.47;5098885;28;1917;-80
2022/12/14 03:39:20;;;;;;;;;;;;;;;21.33;23.17;97901.66;5098518;28;899;-81
2022/12/14 03:42:06;;;;;;;;;;;;;;;20.95;23.71;97901.41;5098792;28;885;-80
2022/12/14 03:44:58;;;;;;;;;;;;;;;20.49;24.48;97896.91;5099547;28;1124;-80
2022/12/14 03:47:23;;;;;;;;;;;;;;;20.85;24.11;97891.16;5057048;28;1102;-80
2022/12/14 03:50:03;;;;;;;;;;;;;;;21.07;23.71;97897.06;5057310;28;976;-80
2022/12/14 03:52:31;;;;;;;;;;;;;;;21.28;23.41;97907.81;5038339;28;1297;-80
2022/12/14 03:55:12;;;;;;;;;;;;;;;21.17;23.61;97904.47;5056112;28;1898;-80
2022/12/14 03:57:37;;;;;;;;;;;;;;;20.95;23.94;97900.63;5056142;28;1205;-80
2022/12/14 04:00:04;;;;;;;;;;;;;;;20.67;24.45;97897.25;5056343;28;1272;-80
2022/12/14 04:02:44;;;;;;;;;;;;;;;20.87;24.17;97899.19;5056611;28;1241;-80
2022/12/14 04:05:28;;;;;;;;;;;;;;;21.04;23.79;97897.97;5056251;28;1205;-80
2022/12/14 04:07:53;;;;;;;;;;;;;;;21.49;23.10;97894.34;5016243;28;1168;-80
2022/12/14 04:21:19;;;;;;;;;;;;;;;21.10;24.05;97907.50;5024082;28;1139;-80
2022/12/14 04:26:35;;;;;;;;;;;;;;;20.93;24.02;97912.38;5061488;28;1063;-80
2022/12/14 04:32:24;;;;;;;;;;;;;;;20.36;25.12;97905.22;5059650;28;1195;-80
2022/12/14 04:34:52;;;;;;;;;;;;;;;20.85;24.25;97902.47;4976263;28;1903;-80
2022/12/14 04:37:18;;;;;;;;;;;;;;;21.11;24.10;97892.13;4977371;28;1247;-80
2022/12/14 04:39:48;;;;;;;;;;;;;;;21.34;23.53;97888.28;4996505;28;1234;-80
2022/12/14 04:42:13;;;;;;;;;;;;;;;21.31;23.56;97884.31;4957874;29;982;-80
2022/12/14 04:44:40;;;;;;;;;;;;;;;20.95;24.26;97886.47;4925834;29;1252;-80
2022/12/14 04:47:06;;;;;;;;;;;;;;;20.58;24.69;97888.63;4942060;29;959;-80
2022/12/14 04:49:35;;;;;;;;;;;;;;;20.54;24.94;97887.91;4940023;29;2002;-80
2022/12/14 04:52:18;;;;;;;;;;;;;;;20.60;24.73;97896.66;4901020;29;1232;-81
2022/12/14 04:54:50;;;;;;;;;;;;;;;21.01;24.27;97893.19;4901168;29;899;-80
2022/12/14 04:57:15;;;;;;;;;;;;;;;21.25;23.96;97897.41;4920031;29;983;-80
2022/12/14 04:59:41;;;;;;;;;;;;;;;21.20;23.99;97895.13;4919168;29;929;-80
2022/12/14 05:02:26;;;;;;;;;;;;;;;20.91;24.30;97888.59;4904388;29;1055;-80
2022/12/14 05:05:04;;;;;;;;;;;;;;;20.62;24.59;97878.00;4903026;29;1450;-80
2022/12/14 05:07:30;;;;;;;;;;;;;;;20.54;24.73;97876.59;4903957;29;959;-80
2022/12/14 05:09:59;;;;;;;;;;;;;;;21.18;23.92;97879.81;4947500;28;912;-80
2022/12/14 05:12:35;;;;;;;;;;;;;;;21.17;24.10;97876.19;5025646;28;1677;-80
2022/12/14 05:15:02;;;;;;;;;;;;;;;21.15;24.03;97881.50;5053107;28;1902;-80
2022/12/14 05:17:28;;;;;;;;;;;;;;;21.03;24.04;97879.38;5060707;28;922;-80
2022/12/14 05:19:53;;;;;;;;;;;;;;;20.71;24.62;97886.66;5055287;28;974;-80
2022/12/14 05:22:19;;;;;;;;;;;;;;;20.48;24.85;97870.69;5055704;28;909;-80
2022/12/14 05:24:45;;;;;;;;;;;;;;;20.93;24.23;97875.59;5054896;28;910;-80
2022/12/14 05:27:10;;;;;;;;;;;;;;;21.03;24.26;97874.53;5055319;28;1012;-80
2022/12/14 05:29:36;;;;;;;;;;;;;;;21.16;24.06;97888.75;5086542;28;857;-79
2022/12/14 05:32:01;;;;;;;;;;;;;;;21.01;24.24;97893.19;5062087;28;956;-80
2022/12/14 05:34:27;;;;;;;;;;;;;;;21.08;24.29;97890.16;5100845;28;1976;-80
2022/12/14 05:36:52;;;;;;;;;;;;;;;20.79;24.29;97888.09;5098354;28;1909;-80
2022/12/14 05:39:18;;;;;;;;;;;;;;;21.11;24.08;97889.28;5116954;28;875;-80
2022/12/14 05:41:43;;;;;;;;;;;;;;;21.09;24.31;97894.59;5098771;28;945;-80
2022/12/14 05:44:09;;;;;;;;;;;;;;;21.26;24.09;97899.00;5117576;28;902;-80
2022/12/14 05:46:34;;;;;;;;;;;;;;;20.85;24.54;97901.69;5095259;28;950;-80
2022/12/14 05:48:59;;;;;;;;;;;;;;;20.67;24.79;97896.47;5095367;28;997;-80
2022/12/14 05:51:25;;;;;;;;;;;;;;;20.53;25.16;97914.59;5095373;28;883;-80
2022/12/14 05:53:50;;;;;;;;;;;;;;;20.79;24.67;97907.88;5094687;28;863;-80
2022/12/14 05:56:16;;;;;;;;;;;;;;;20.97;24.32;97903.78;5095360;28;1910;-80
2022/12/14 05:58:41;;;;;;;;;;;;;;;21.14;24.13;97908.22;5077804;28;1005;-80
2022/12/14 06:01:08;;;;;;;;;;;;;;;21.11;24.31;97902.66;5095308;28;952;-80
2022/12/14 06:03:33;;;;;;;;;;;;;;;20.85;24.42;97908.13;5094705;28;905;-81
2022/12/14 06:06:08;;;;;;;;;;;;;;;20.65;25.00;97916.69;5078159;28;886;-80
2022/12/14 06:08:34;;;;;;;;;;;;;;;20.86;24.65;97909.72;5094868;28;907;-80
2022/12/14 06:11:00;;;;;;;;;;;;;;;21.08;24.16;97921.28;5095009;28;1039;-80
2022/12/14 06:13:26;;;;;;;;;;;;;;;21.18;24.25;97917.38;5094269;28;964;-80
2022/12/14 06:15:51;;;;;;;;;;;;;;;21.11;24.04;97920.41;5094912;28;1999;-80
2022/12/14 06:18:18;;;;;;;;;;;;;;;21.24;24.18;97920.47;5111956;28;1873;-80
2022/12/14 06:20:44;;;;;;;;;;;;;;;20.86;24.43;97925.91;5107820;28;875;-80
2022/12/14 06:23:09;;;;;;;;;;;;;;;20.64;24.98;97925.63;5096859;28;976;-80
2022/12/14 06:25:34;;;;;;;;;;;;;;;20.80;24.68;97917.94;5096748;28;904;-80
2022/12/14 06:28:00;;;;;;;;;;;;;;;20.95;24.71;97909.91;5095314;28;1137;-80
2022/12/14 06:30:25;;;;;;;;;;;;;;;21.03;24.24;97919.00;5096925;28;905;-80
2022/12/14 06:32:51;;;;;;;;;;;;;;;21.12;24.31;97910.69;5095570;28;1159;-80
2022/12/14 06:35:16;;;;;;;;;;;;;;;21.10;24.09;97918.81;5097027;28;1905;-80
2022/12/14 06:37:41;;;;;;;;;;;;;;;20.85;24.58;97924.31;5095920;28;950;-80
2022/12/14 06:40:07;;;;;;;;;;;;;;;20.40;25.14;97927.75;5096833;28;909;-80
2022/12/14 06:42:33;;;;;;;;;;;;;;;20.73;25.04;97939.97;5096968;28;1161;-80
2022/12/14 06:44:58;;;;;;;;;;;;;;;21.13;24.23;97932.06;5116359;28;1716;-80
2022/12/14 06:47:24;;;;;;;;;;;;;;;21.17;24.17;97941.25;5117193;28;967;-80
2022/12/14 06:49:50;;;;;;;;;;;;;;;21.14;24.14;97942.16;5097998;28;954;-80
2022/12/14 06:52:15;;;;;;;;;;;;;;;21.00;24.25;97942.53;5121329;28;896;-80
2022/12/14 06:54:41;;;;;;;;;;;;;;;20.64;24.77;97940.56;5120865;28;909;-80
2022/12/14 06:57:06;;;;;;;;;;;;;;;20.52;25.05;97946.88;5120878;28;1985;-80
2022/12/14 06:59:31;;;;;;;;;;;;;;;20.55;25.02;97951.66;5101548;28;868;-80
2022/12/14 07:01:57;;;;;;;;;;;;;;;20.96;24.71;97948.25;5100895;28;881;-80
2022/12/14 07:04:23;;;;;;;;;;;;;;;21.06;24.33;97946.41;5100329;28;885;-80
2022/12/14 07:06:48;;;;;;;;;;;;;;;21.20;24.32;97939.59;5103253;28;1588;-80
2022/12/14 07:09:14;;;;;;;;;;;;;;;20.92;24.58;97943.94;5121343;27;1387;-81
2022/12/14 07:11:39;;;;;;;;;;;;;;;20.67;25.04;97939.66;5107864;28;1534;-80
2022/12/14 07:14:06;;;;;;;;;;;;;;;20.77;24.77;97935.78;5120771;28;889;-80
2022/12/14 07:16:31;;;;;;;;;;;;;;;21.17;24.28;97929.94;5120899;28;1966;-80
2022/12/14 07:18:57;;;;;;;;;;;;;;;21.10;24.54;97927.31;5120736;28;1023;-80
2022/12/14 07:21:22;;;;;;;;;;;;;;;21.22;24.05;97926.56;5121038;28;927;-80
2022/12/14 07:23:48;;;;;;;;;;;;;;;20.87;24.59;97922.63;5120218;28;882;-80
2022/12/14 07:26:18;;;;;;;;;;;;;;;20.83;24.79;97921.13;5121166;28;882;-80
2022/12/14 07:28:44;;;;;;;;;;;;;;;20.64;24.91;97919.97;5105480;28;1939;-80
2022/12/14 07:31:14;;;;;;;;;;;;;;;20.55;25.03;97921.38;5114062;28;906;-80
2022/12/14 07:33:39;;;;;;;;;;;;;;;20.90;24.83;97933.06;5119885;28;930;-80
2022/12/14 07:36:05;;;;;;;;;;;;;;;21.05;24.30;97933.50;5120106;28;1902;-80
2022/12/14 07:38:31;;;;;;;;;;;;;;;21.08;24.45;97929.78;5119415;28;1043;-80
2022/12/14 07:41:10;;;;;;;;;;;;;;;20.65;24.88;97928.00;5120804;28;955;-80
2022/12/14 07:43:36;;;;;;;;;;;;;;;20.58;25.03;97928.19;5119798;28;988;-80
2022/12/14 07:46:02;;;;;;;;;;;;;;;20.92;24.64;97924.13;5117552;28;1825;-80
2022/12/14 07:48:28;;;;;;;;;;;;;;;20.92;24.62;97932.59;5120593;28;846;-80
2022/12/14 07:50:54;;;;;;;;;;;;;;;20.93;24.62;97937.81;5120986;28;852;-80
2022/12/14 07:53:19;;;;;;;;;;;;;;;21.03;24.44;97931.09;5100560;28;1065;-80
2022/12/14 07:55:45;;;;;;;;;;;;;;;21.34;24.07;97927.91;5118583;28;1898;-80
2022/12/14 07:58:10;;;;;;;;;;;;;;;20.84;24.72;97931.22;5118329;28;859;-80
2022/12/14 08:00:36;;;;;;;;;;;;;;;20.59;25.33;97934.63;5120058;28;1221;-80
2022/12/14 08:03:01;;;;;;;;;;;;;;;20.87;24.94;97933.94;5102181;28;1930;-80
2022/12/14 08:05:27;;;;;;;;;;;;;;;21.13;24.44;97929.22;5113495;28;889;-80
2022/12/14 08:07:52;;;;;;;;;;;;;;;21.32;24.12;97930.41;5109884;27;1634;-80
2022/12/14 08:10:18;;;;;;;;;;;;;;;21.04;24.52;97920.59;5103930;28;2082;-80
2022/12/14 08:12:43;;;;;;;;;;;;;;;20.60;25.23;97922.88;5095751;28;1955;-80
2022/12/14 08:15:09;;;;;;;;;;;;;;;20.55;25.17;97924.19;5101261;28;1899;-80
2022/12/14 08:17:34;;;;;;;;;;;;;;;20.95;24.93;97924.03;5095923;28;996;-80
2022/12/14 08:19:59;;;;;;;;;;;;;;;21.11;24.41;97917.59;5098981;28;854;-80
2022/12/14 08:22:25;;;;;;;;;;;;;;;21.22;24.26;97932.25;5099311;28;1113;-80
2022/12/14 08:24:50;;;;;;;;;;;;;;;21.21;24.54;97925.00;5099344;28;1042;-80
2022/12/14 08:27:16;;;;;;;;;;;;;;;20.85;24.66;97927.16;5099193;28;939;-80
2022/12/14 08:29:41;;;;;;;;;;;;;;;20.68;24.92;97926.34;5098979;28;912;-79
2022/12/14 08:32:07;;;;;;;;;;;;;;;20.60;25.57;97924.91;5099152;28;1615;-80
2022/12/14 08:34:32;;;;;;;;;;;;;;;20.89;24.92;97925.03;5082937;28;1035;-80
2022/12/14 08:36:58;;;;;;;;;;;;;;;21.29;24.43;97931.25;5119430;28;1917;-80
2022/12/14 08:39:23;;;;;;;;;;;;;;;21.22;24.44;97926.56;5117551;28;954;-80
2022/12/14 08:41:49;;;;;;;;;;;;;;;21.28;24.16;97919.13;5117608;28;1471;-79
2022/12/14 08:44:16;;;;;;;;;;;;;;;20.97;24.77;97926.41;5107043;28;1776;-80
2022/12/14 08:46:41;;;;;;;;;;;;;;;20.62;25.21;97926.06;5119580;28;823;-80
2022/12/14 08:49:07;;;;;;;;;;;;;;;20.72;25.19;97919.34;5119227;28;1150;-80
2022/12/14 08:51:34;;;;;;;;;;;;;;;21.04;24.59;97926.25;5119129;28;875;-80
2022/12/14 08:53:59;;;;;;;;;;;;;;;21.33;24.20;97938.44;5119197;28;916;-80
2022/12/14 08:56:25;;;;;;;;;;;;;;;21.42;24.09;97934.19;5118907;28;1979;-80
2022/12/14 08:58:51;;;;;;;;;;;;;;;21.44;24.04;97937.34;5118715;28;923;-80
2022/12/14 09:01:18;;;;;;;;;;;;;;;21.26;24.26;97944.25;5100636;28;1069;-80
2022/12/14 09:03:44;;;;;;;;;;;;;;;21.07;24.47;97931.81;5118468;27;901;-80
2022/12/14 09:06:10;;;;;;;;;;;;;;;20.51;25.36;97922.69;5118775;28;926;-80
2022/12/14 09:08:36;;;;;;;;;;;;;;;20.72;25.28;97938.34;5116520;28;1402;-80
2022/12/14 09:11:01;;;;;;;;;;;;;;;21.17;24.47;97944.09;5113835;28;1050;-80
2022/12/14 09:13:27;;;;;;;;;;;;;;;21.22;24.58;97948.44;5118220;28;952;-80
2022/12/14 09:15:59;;;;;;;;;;;;;;;21.07;24.57;97943.13;5117812;28;1983;-80
2022/12/14 09:18:25;;;;;;;;;;;;;;;20.76;25.06;97939.84;5099652;28;959;-80
2022/12/14 09:20:53;;;;;;;;;;;;;;;20.69;25.24;97940.03;5098135;28;1035;-80
2022/12/14 09:23:20;;;;;;;;;;;;;;;20.91;25.04;97933.84;5097553;28;1028;-80
2022/12/14 09:25:45;;;;;;;;;;;;;;;21.03;24.79;97919.00;5108420;28;1007;-81
2022/12/14 09:28:11;;;;;;;;;;;;;;;21.25;24.61;97924.91;5118245;28;907;-80
2022/12/14 09:30:36;;;;;;;;;;;;;;;20.96;25.00;97916.34;5118217;28;852;-80
2022/12/14 09:33:02;;;;;;;;;;;;;;;20.80;25.09;97920.78;5104414;28;1703;-80
2022/12/14 09:35:27;;;;;;;;;;;;;;;20.87;25.33;97925.44;5097421;28;1914;-80
2022/12/14 09:37:53;;;;;;;;;;;;;;;21.25;24.51;97919.25;5097004;28;861;-80
2022/12/14 09:40:18;;;;;;;;;;;;;;;21.25;24.65;97914.38;5097463;28;1003;-80
2022/12/14 09:42:55;;;;;;;;;;;;;;;21.14;24.51;97908.22;5106604;28;1506;-80
2022/12/14 09:45:24;;;;;;;;;;;;;;;20.81;25.19;97902.56;5117765;28;1039;-80
2022/12/14 09:48:04;;;;;;;;;;;;;;;20.67;25.29;97894.44;5116388;28;894;-80
2022/12/14 09:50:29;;;;;;;;;;;;;;;20.83;25.41;97893.66;5116239;28;978;-80
2022/12/14 09:52:55;;;;;;;;;;;;;;;21.06;24.97;97890.63;5115981;28;964;-80
2022/12/14 09:55:25;;;;;;;;;;;;;;;21.10;24.78;97892.56;5116366;28;1978;-80
2022/12/14 09:58:11;;;;;;;;;;;;;;;20.85;25.00;97879.84;5117318;28;901;-80
2022/12/14 10:00:37;;;;;;;;;;;;;;;20.80;25.19;97871.91;5109425;28;1684;-80
2022/12/14 10:03:18;;;;;;;;;;;;;;;20.42;25.58;97872.41;5095927;28;978;-80
2022/12/14 10:06:02;;;;;;;;;;;;;;;21.16;24.76;97883.09;5096889;28;943;-80
2022/12/14 10:09:03;;;;;;;;;;;;;;;21.01;24.88;97870.56;5096741;28;1009;-80
2022/12/14 10:11:41;;;;;;;;;;;;;;;21.03;24.81;97880.19;5034272;28;1047;-80
2022/12/14 10:14:12;;;;;;;;;;;;;;;20.73;25.24;97889.06;5034232;28;1002;-80
2022/12/14 10:16:46;;;;;;;;;;;;;;;20.68;25.31;97890.38;5017385;28;2107;-80
2022/12/14 10:19:20;;;;;;;;;;;;;;;21.21;24.93;97896.69;5017662;28;1059;-80
2022/12/14 10:21:47;;;;;;;;;;;;;;;21.12;24.75;97895.75;5037253;28;1815;-80
2022/12/14 10:24:16;;;;;;;;;;;;;;;21.08;24.87;97898.66;5028902;28;1465;-80
2022/12/14 10:26:43;;;;;;;;;;;;;;;21.01;24.98;97893.19;5000196;28;1540;-80
2022/12/14 10:29:13;;;;;;;;;;;;;;;20.97;25.30;97903.78;4997962;28;1025;-80
2022/12/14 10:31:43;;;;;;;;;;;;;;;21.26;24.85;97899.00;4998140;28;994;-80
2022/12/14 10:34:14;;;;;;;;;;;;;;;21.45;24.33;97888.00;5027819;28;1688;-80
2022/12/14 10:37:09;;;;;;;;;;;;;;;21.41;24.70;97881.66;5025515;28;2066;-80
2022/12/14 10:39:57;;;;;;;;;;;;;;;20.79;25.28;97864.66;4997044;28;1059;-80
2022/12/14 10:42:28;;;;;;;;;;;;;;;20.71;25.37;97858.38;4936580;29;1499;-80
2022/12/14 10:45:12;;;;;;;;;;;;;;;21.07;25.01;97863.13;4947161;28;947;-80
2022/12/14 10:47:39;;;;;;;;;;;;;;;21.18;24.71;97851.50;4975383;28;1023;-80
2022/12/14 10:50:05;;;;;;;;;;;;;;;21.25;24.57;97849.28;4958723;28;988;-80
2022/12/14 10:52:35;;;;;;;;;;;;;;;20.92;24.91;97845.72;4975456;28;1018;-80
2022/12/14 10:55:05;;;;;;;;;;;;;;;20.96;25.02;97840.78;4958766;28;1027;-80
2022/12/14 10:57:31;;;;;;;;;;;;;;;20.96;25.13;97846.44;4936909;29;941;-80
2022/12/14 10:59:56;;;;;;;;;;;;;;;21.20;24.94;97855.50;4936370;28;929;-80
2022/12/14 11:02:23;;;;;;;;;;;;;;;21.40;24.66;97846.06;4954620;28;2109;-80
2022/12/14 11:04:55;;;;;;;;;;;;;;;21.16;24.64;97854.78;4954551;29;1100;-80
2022/12/14 11:07:24;;;;;;;;;;;;;;;20.96;25.09;97856.97;4956098;29;1033;-80
2022/12/14 11:09:50;;;;;;;;;;;;;;;20.88;25.25;97849.88;4943400;29;1864;-80
2022/12/14 11:12:19;;;;;;;;;;;;;;;21.00;25.28;97852.78;4943965;29;1794;-80
2022/12/14 11:14:55;;;;;;;;;;;;;;;21.15;24.91;97847.56;4940950;28;1973;-80
2022/12/14 11:17:29;;;;;;;;;;;;;;;21.37;24.62;97841.34;4975004;28;1911;-80
2022/12/14 11:20:12;;;;;;;;;;;;;;;20.86;25.14;97841.06;5031982;28;979;-80
2022/12/14 11:22:44;;;;;;;;;;;;;;;20.68;25.50;97825.34;5071055;28;1765;-80
2022/12/14 11:25:28;;;;;;;;;;;;;;;20.81;25.42;97834.69;5073242;28;1833;-80
2022/12/14 11:27:53;;;;;;;;;;;;;;;21.27;24.75;97826.19;5078732;28;2178;-80
2022/12/14 11:30:18;;;;;;;;;;;;;;;21.31;24.63;97832.59;5095405;28;1927;-80
2022/12/14 11:32:47;;;;;;;;;;;;;;;21.02;25.14;97827.69;5097330;28;1708;-80
2022/12/14 11:35:16;;;;;;;;;;;;;;;20.79;25.23;97831.53;5107049;28;2107;-80
2022/12/14 11:37:42;;;;;;;;;;;;;;;20.73;25.66;97833.31;5103463;28;929;-80
2022/12/14 11:40:16;;;;;;;;;;;;;;;21.07;24.97;97834.84;5107006;28;880;-80
2022/12/14 11:42:46;;;;;;;;;;;;;;;21.13;25.06;97841.53;5118723;28;900;-80
2022/12/14 11:45:22;;;;;;;;;;;;;;;21.26;24.66;97836.72;5107247;28;1629;-80
2022/12/14 11:47:56;;;;;;;;;;;;;;;20.94;25.29;97845.31;5103541;28;1609;-80
2022/12/14 11:50:22;;;;;;;;;;;;;;;20.93;25.01;97836.00;5098398;28;921;-80
2022/12/14 11:52:47;;;;;;;;;;;;;;;21.17;25.07;97836.56;5114274;28;1246;-78
2022/12/14 11:55:13;;;;;;;;;;;;;;;21.31;24.89;97833.38;5109976;28;1910;-78
2022/12/14 11:57:51;;;;;;;;;;;;;;;21.36;24.60;97834.09;5109844;28;1592;-78
2022/12/14 12:00:20;;;;;;;;;;;;;;;21.02;25.08;97827.69;5112732;28;1633;-78
2022/12/14 12:02:58;;;;;;;;;;;;;;;20.79;25.51;97820.22;5105556;28;1625;-78
2022/12/14 12:05:24;;;;;;;;;;;;;;;20.90;25.56;97819.16;5113261;28;1954;-78
2022/12/14 12:07:51;;;;;;;;;;;;;;;21.22;25.12;97821.88;5103142;28;1988;-78
2022/12/14 12:10:35;;;;;;;;;;;;;;;21.27;24.77;97823.38;5098127;28;1166;-78
2022/12/14 12:13:00;;;;;;;;;;;;;;;21.12;24.88;97817.31;5109596;28;1662;-78
2022/12/14 12:15:32;;;;;;;;;;;;;;;20.83;25.66;97822.97;5117777;28;1891;-78
2022/12/14 12:17:59;;;;;;;;;;;;;;;20.71;25.70;97818.81;5099305;28;1266;-78
2022/12/14 12:20:26;;;;;;;;;;;;;;;21.02;25.09;97809.91;5097611;28;927;-78
2022/12/14 12:22:52;;;;;;;;;;;;;;;21.26;24.73;97799.94;5102066;28;1890;-78
2022/12/14 12:25:18;;;;;;;;;;;;;;;21.23;25.13;97798.00;5107810;27;1896;-78
2022/12/14 12:27:46;;;;;;;;;;;;;;;20.91;25.50;97792.44;5119308;28;911;-78
2022/12/14 12:30:32;;;;;;;;;;;;;;;20.99;25.03;97797.47;5116806;28;1804;-78
2022/12/14 12:33:00;;;;;;;;;;;;;;;20.94;25.42;97805.72;5099665;28;1168;-79
2022/12/14 12:35:31;;;;;;;;;;;;;;;21.28;24.80;97811.59;5107422;28;1914;-79
2022/12/14 12:37:57;;;;;;;;;;;;;;;21.43;24.78;97808.41;5097184;28;1014;-79
2022/12/14 12:40:41;;;;;;;;;;;;;;;21.16;24.77;97815.19;5099311;28;979;-79
2022/12/14 12:43:29;;;;;;;;;;;;;;;21.02;25.14;97815.56;5098852;28;937;-79
2022/12/14 12:45:56;;;;;;;;;;;;;;;20.87;25.57;97815.16;5055470;28;1100;-79
2022/12/14 12:48:24;;;;;;;;;;;;;;;21.24;24.88;97813.75;5038775;28;1016;-79
2022/12/14 12:50:50;;;;;;;;;;;;;;;21.28;24.74;97817.25;5055765;28;943;-79
2022/12/14 12:53:17;;;;;;;;;;;;;;;21.46;24.53;97804.69;5039056;28;1025;-79
2022/12/14 12:55:46;;;;;;;;;;;;;;;21.18;25.16;97807.03;5039499;28;1918;-79
2022/12/14 12:58:16;;;;;;;;;;;;;;;20.83;25.55;97806.00;5038831;28;1117;-79
2022/12/14 13:00:42;;;;;;;;;;;;;;;20.91;25.45;97810.19;5066792;28;1883;-79
2022/12/14 13:03:20;;;;;;;;;;;;;;;21.07;25.39;97809.38;5054789;28;1498;-79
2022/12/14 13:05:45;;;;;;;;;;;;;;;21.19;24.99;97803.00;5053124;28;1541;-79
2022/12/14 13:08:13;;;;;;;;;;;;;;;21.19;25.10;97803.00;5062583;28;1631;-79
2022/12/14 13:10:39;;;;;;;;;;;;;;;20.99;25.46;97797.47;5058215;28;1569;-79
2022/12/14 13:13:07;;;;;;;;;;;;;;;20.83;25.59;97789.03;5058233;28;1817;-79
2022/12/14 13:15:53;;;;;;;;;;;;;;;20.92;25.72;97799.69;5058215;28;1902;-79
2022/12/14 13:18:32;;;;;;;;;;;;;;;21.11;25.33;97793.09;4995081;28;1841;-79
2022/12/14 13:20:57;;;;;;;;;;;;;;;21.31;24.98;97785.28;4993026;28;1523;-79
2022/12/14 13:23:23;;;;;;;;;;;;;;;21.06;25.26;97787.97;5012458;28;1573;-79
2022/12/14 13:25:49;;;;;;;;;;;;;;;20.98;25.47;97797.91;5035288;28;1251;-79
2022/12/14 13:28:34;;;;;;;;;;;;;;;20.81;25.83;97788.66;5034787;28;1010;-79